Time,TemperatureF,DewpointF,PressureIn,WindDirection,WindDirectionDegrees,WindSpeedMPH,WindSpeedGustMPH,Humidity,HourlyPrecipIn,Conditions,Clouds,dailyrainin,SoftwareType,DateUTC
2013-01-15 00:00:00,35.6,27.8,30.41,NW,319,0.0,3.0,73,0.00,,,0.00,VWS V14.01,2013-01-15 08:00:00,
2013-01-15 00:05:00,35.6,28.1,30.41,NW,319,0.0,2.0,74,0.00,,,0.00,VWS V14.01,2013-01-15 08:05:00,
2013-01-15 00:10:00,35.6,28.1,30.41,NW,319,0.0,4.0,74,0.00,,,0.00,VWS V14.01,2013-01-15 08:10:00,
2013-01-15 00:15:00,35.6,28.1,30.41,NW,319,0.0,4.0,74,0.00,,,0.00,VWS V14.01,2013-01-15 08:15:00,
2013-01-15 00:20:00,35.5,28.0,30.41,NW,319,0.0,4.0,74,0.00,,,0.00,VWS V14.01,2013-01-15 08:20:00,
2013-01-15 00:25:00,35.5,28.4,30.41,NW,319,0.0,4.0,75,0.00,,,0.00,VWS V14.01,2013-01-15 08:25:00,
2013-01-15 00:30:00,35.4,28.3,30.41,NW,319,0.0,4.0,75,0.00,,,0.00,VWS V14.01,2013-01-15 08:30:00,
2013-01-15 00:35:00,35.4,28.3,30.42,NW,319,0.0,4.0,75,0.00,,,0.00,VWS V14.01,2013-01-15 08:35:00,
2013-01-15 00:40:00,35.4,28.3,30.41,NW,319,0.0,4.0,75,0.00,,,0.00,VWS V14.01,2013-01-15 08:40:00,
2013-01-15 00:45:00,35.3,28.5,30.42,NW,319,0.0,4.0,76,0.00,,,0.00,VWS V14.01,2013-01-15 08:45:00,
2013-01-15 00:50:00,35.3,28.5,30.42,NW,319,0.0,4.0,76,0.00,,,0.00,VWS V14.01,2013-01-15 08:50:00,
2013-01-15 00:55:00,35.2,28.4,30.42,NW,319,0.0,5.0,76,0.00,,,0.00,VWS V14.01,2013-01-15 08:55:00,
2013-01-15 01:00:00,35.2,28.7,30.42,NW,319,0.0,5.0,77,0.00,,,0.00,VWS V14.01,2013-01-15 09:00:00,
2013-01-15 01:05:00,35.2,28.7,30.42,NW,319,0.0,0.0,77,0.00,,,0.00,VWS V14.01,2013-01-15 09:05:00,
2013-01-15 01:10:00,35.1,28.6,30.43,NW,319,0.0,3.0,77,0.00,,,0.00,VWS V14.01,2013-01-15 09:10:00,
2013-01-15 01:15:00,35.1,28.6,30.43,NW,319,0.0,3.0,77,0.00,,,0.00,VWS V14.01,2013-01-15 09:15:00,
2013-01-15 01:20:00,35.1,28.6,30.43,NW,319,0.0,3.0,77,0.00,,,0.00,VWS V14.01,2013-01-15 09:20:00,
2013-01-15 01:25:00,35.0,28.5,30.43,NW,319,0.0,3.0,77,0.00,,,0.00,VWS V14.01,2013-01-15 09:25:00,
2013-01-15 01:30:00,35.0,28.5,30.43,NW,319,0.0,3.0,77,0.00,,,0.00,VWS V14.01,2013-01-15 09:30:00,
2013-01-15 01:35:00,34.9,28.4,30.43,NW,319,0.0,3.0,77,0.00,,,0.00,VWS V14.01,2013-01-15 09:35:00,
2013-01-15 01:40:00,34.8,28.6,30.43,NW,319,0.0,3.0,78,0.00,,,0.00,VWS V14.01,2013-01-15 09:40:00,
2013-01-15 01:45:00,34.8,28.6,30.43,NW,319,0.0,3.0,78,0.00,,,0.00,VWS V14.01,2013-01-15 09:45:00,
2013-01-15 01:50:00,34.7,28.5,30.43,NW,319,0.0,3.0,78,0.00,,,0.00,VWS V14.01,2013-01-15 09:50:00,
2013-01-15 01:55:00,34.7,28.5,30.44,NW,319,0.0,3.0,78,0.00,,,0.00,VWS V14.01,2013-01-15 09:55:00,
2013-01-15 02:00:00,34.7,28.5,30.43,NW,319,0.0,3.0,78,0.00,,,0.00,VWS V14.01,2013-01-15 10:00:00,
2013-01-15 02:05:00,34.6,28.5,30.44,NW,319,0.0,0.0,78,0.00,,,0.00,VWS V14.01,2013-01-15 10:05:00,
2013-01-15 02:10:00,34.4,28.3,30.44,NW,319,0.0,0.0,78,0.00,,,0.00,VWS V14.01,2013-01-15 10:10:00,
2013-01-15 02:15:00,34.4,28.3,30.45,NW,319,0.0,0.0,78,0.00,,,0.00,VWS V14.01,2013-01-15 10:15:00,
2013-01-15 02:20:00,34.4,28.6,30.45,NW,319,0.0,0.0,79,0.00,,,0.00,VWS V14.01,2013-01-15 10:20:00,
2013-01-15 02:25:00,34.2,28.4,30.45,NW,319,0.0,0.0,79,0.00,,,0.00,VWS V14.01,2013-01-15 10:25:00,
2013-01-15 02:30:00,34.0,27.9,30.45,NW,319,0.0,0.0,78,0.00,,,0.00,VWS V14.01,2013-01-15 10:30:00,
2013-01-15 02:35:00,33.8,27.7,30.45,NW,319,0.0,0.0,78,0.00,,,0.00,VWS V14.01,2013-01-15 10:35:00,
2013-01-15 02:40:00,33.6,27.8,30.45,NW,319,0.0,0.0,79,0.00,,,0.00,VWS V14.01,2013-01-15 10:40:00,
2013-01-15 02:45:00,33.5,27.7,30.45,NW,319,0.0,0.0,79,0.00,,,0.00,VWS V14.01,2013-01-15 10:45:00,
2013-01-15 02:50:00,33.4,27.9,30.45,NW,319,0.0,0.0,80,0.00,,,0.00,VWS V14.01,2013-01-15 10:50:00,
2013-01-15 02:55:00,33.4,27.9,30.45,NW,319,0.0,0.0,80,0.00,,,0.00,VWS V14.01,2013-01-15 10:55:00,
2013-01-15 03:00:00,33.3,28.1,30.45,NW,319,0.0,0.0,81,0.00,,,0.00,VWS V14.01,2013-01-15 11:00:00,
2013-01-15 03:05:00,33.2,28.0,30.45,NW,319,0.0,0.0,81,0.00,,,0.00,VWS V14.01,2013-01-15 11:05:00,
2013-01-15 03:10:00,33.2,28.0,30.45,NW,319,0.0,0.0,81,0.00,,,0.00,VWS V14.01,2013-01-15 11:10:00,
2013-01-15 03:15:00,33.1,27.9,30.45,NW,319,0.0,0.0,81,0.00,,,0.00,VWS V14.01,2013-01-15 11:15:00,
2013-01-15 03:20:00,33.0,27.8,30.45,NW,319,0.0,0.0,81,0.00,,,0.00,VWS V14.01,2013-01-15 11:20:00,
2013-01-15 03:25:00,33.0,27.8,30.45,NW,319,0.0,0.0,81,0.00,,,0.00,VWS V14.01,2013-01-15 11:25:00,
2013-01-15 03:30:00,33.0,27.8,30.45,NW,319,0.0,0.0,81,0.00,,,0.00,VWS V14.01,2013-01-15 11:30:00,
2013-01-15 03:35:00,32.9,27.7,30.45,NW,319,0.0,0.0,81,0.00,,,0.00,VWS V14.01,2013-01-15 11:35:00,
2013-01-15 03:40:00,32.8,27.6,30.45,NW,319,0.0,0.0,81,0.00,,,0.00,VWS V14.01,2013-01-15 11:40:00,
2013-01-15 03:45:00,32.8,27.6,30.45,NW,319,0.0,0.0,81,0.00,,,0.00,VWS V14.01,2013-01-15 11:45:00,
2013-01-15 03:50:00,32.7,27.5,30.45,NW,319,0.0,0.0,81,0.00,,,0.00,VWS V14.01,2013-01-15 11:50:00,
2013-01-15 03:55:00,32.6,27.4,30.45,NW,319,0.0,0.0,81,0.00,,,0.00,VWS V14.01,2013-01-15 11:55:00,
2013-01-15 04:00:00,32.6,27.4,30.45,NW,319,0.0,0.0,81,0.00,,,0.00,VWS V14.01,2013-01-15 12:00:00,
2013-01-15 04:05:00,32.5,27.3,30.45,NW,319,0.0,0.0,81,0.00,,,0.00,VWS V14.01,2013-01-15 12:05:00,
2013-01-15 04:10:00,32.4,27.2,30.45,NW,319,0.0,0.0,81,0.00,,,0.00,VWS V14.01,2013-01-15 12:10:00,
2013-01-15 04:15:00,32.3,27.1,30.46,NW,319,0.0,0.0,81,0.00,,,0.00,VWS V14.01,2013-01-15 12:15:00,
2013-01-15 04:20:00,32.3,27.1,30.46,NW,319,0.0,0.0,81,0.00,,,0.00,VWS V14.01,2013-01-15 12:20:00,
2013-01-15 04:25:00,32.3,27.1,30.46,NW,319,0.0,0.0,81,0.00,,,0.00,VWS V14.01,2013-01-15 12:25:00,
2013-01-15 04:30:00,32.3,27.1,30.46,NW,319,0.0,0.0,81,0.00,,,0.00,VWS V14.01,2013-01-15 12:30:00,
2013-01-15 04:35:00,32.3,27.1,30.46,NW,319,0.0,0.0,81,0.00,,,0.00,VWS V14.01,2013-01-15 12:35:00,
2013-01-15 04:40:00,32.3,27.1,30.45,NW,319,0.0,0.0,81,0.00,,,0.00,VWS V14.01,2013-01-15 12:40:00,
2013-01-15 04:45:00,32.2,27.0,30.45,NW,319,0.0,0.0,81,0.00,,,0.00,VWS V14.01,2013-01-15 12:45:00,
2013-01-15 04:50:00,32.1,26.9,30.45,NW,319,0.0,0.0,81,0.00,,,0.00,VWS V14.01,2013-01-15 12:50:00,
2013-01-15 04:55:00,32.0,26.8,30.46,NW,319,0.0,0.0,81,0.00,,,0.00,VWS V14.01,2013-01-15 12:55:00,
2013-01-15 05:00:00,31.9,26.7,30.46,NW,319,0.0,0.0,81,0.00,,,0.00,VWS V14.01,2013-01-15 13:00:00,
2013-01-15 05:05:00,31.9,26.7,30.46,NW,319,0.0,0.0,81,0.00,,,0.00,VWS V14.01,2013-01-15 13:05:00,
2013-01-15 05:10:00,31.8,26.6,30.46,NW,319,0.0,0.0,81,0.00,,,0.00,VWS V14.01,2013-01-15 13:10:00,
2013-01-15 05:15:00,31.7,26.5,30.47,NW,319,0.0,0.0,81,0.00,,,0.00,VWS V14.01,2013-01-15 13:15:00,
2013-01-15 05:20:00,31.7,26.8,30.47,NW,319,0.0,0.0,82,0.00,,,0.00,VWS V14.01,2013-01-15 13:20:00,
2013-01-15 05:25:00,31.5,26.4,30.47,NW,319,0.0,0.0,81,0.00,,,0.00,VWS V14.01,2013-01-15 13:25:00,
2013-01-15 05:30:00,31.4,26.2,30.46,NW,319,0.0,0.0,81,0.00,,,0.00,VWS V14.01,2013-01-15 13:30:00,
2013-01-15 05:35:00,31.4,26.5,30.47,NW,319,0.0,0.0,82,0.00,,,0.00,VWS V14.01,2013-01-15 13:35:00,
2013-01-15 05:40:00,31.2,26.4,30.46,NW,319,0.0,0.0,82,0.00,,,0.00,VWS V14.01,2013-01-15 13:40:00,
2013-01-15 05:45:00,31.1,26.3,30.46,NW,319,0.0,0.0,82,0.00,,,0.00,VWS V14.01,2013-01-15 13:45:00,
2013-01-15 05:50:00,31.0,26.2,30.46,NW,319,0.0,0.0,82,0.00,,,0.00,VWS V14.01,2013-01-15 13:50:00,
2013-01-15 05:55:00,30.9,26.1,30.46,NW,319,0.0,0.0,82,0.00,,,0.00,VWS V14.01,2013-01-15 13:55:00,
2013-01-15 06:00:00,30.8,26.0,30.46,NW,319,0.0,0.0,82,0.00,,,0.00,VWS V14.01,2013-01-15 14:00:00,
2013-01-15 06:05:00,30.8,26.3,30.47,NW,319,0.0,0.0,83,0.00,,,0.00,VWS V14.01,2013-01-15 14:05:00,
2013-01-15 06:10:00,30.8,26.3,30.47,NW,319,0.0,0.0,83,0.00,,,0.00,VWS V14.01,2013-01-15 14:10:00,
2013-01-15 06:15:00,30.8,26.3,30.47,NW,319,0.0,0.0,83,0.00,,,0.00,VWS V14.01,2013-01-15 14:15:00,
2013-01-15 06:20:00,30.7,26.2,30.47,NW,319,0.0,0.0,83,0.00,,,0.00,VWS V14.01,2013-01-15 14:20:00,
2013-01-15 06:25:00,30.6,26.1,30.47,NW,319,0.0,0.0,83,0.00,,,0.00,VWS V14.01,2013-01-15 14:25:00,
2013-01-15 06:30:00,30.5,26.0,30.48,NW,319,0.0,0.0,83,0.00,,,0.00,VWS V14.01,2013-01-15 14:30:00,
2013-01-15 06:35:00,30.5,26.0,30.48,NW,319,0.0,0.0,83,0.00,,,0.00,VWS V14.01,2013-01-15 14:35:00,
2013-01-15 06:39:00,30.5,26.0,30.48,NW,319,0.0,0.0,83,0.00,,,0.00,VWS V14.01,2013-01-15 14:39:00,
2013-01-15 06:44:00,30.5,26.0,30.48,NW,319,0.0,0.0,83,0.00,,,0.00,VWS V14.01,2013-01-15 14:44:00,
2013-01-15 06:49:00,30.5,26.0,30.48,NW,319,0.0,0.0,83,0.00,,,0.00,VWS V14.01,2013-01-15 14:49:00,
2013-01-15 06:54:00,30.5,26.0,30.48,NW,319,0.0,0.0,83,0.00,,,0.00,VWS V14.01,2013-01-15 14:54:00,
2013-01-15 06:59:00,30.5,26.0,30.49,NW,319,0.0,0.0,83,0.00,,,0.00,VWS V14.01,2013-01-15 14:59:00,
2013-01-15 07:04:00,30.5,26.0,30.49,NW,319,0.0,0.0,83,0.00,,,0.00,VWS V14.01,2013-01-15 15:04:00,
2013-01-15 07:09:00,30.5,26.0,30.49,NW,319,0.0,0.0,83,0.00,,,0.00,VWS V14.01,2013-01-15 15:09:00,
2013-01-15 07:14:00,30.5,26.0,30.49,NW,319,0.0,0.0,83,0.00,,,0.00,VWS V14.01,2013-01-15 15:14:00,
2013-01-15 07:19:00,30.5,26.0,30.49,NW,319,0.0,0.0,83,0.00,,,0.00,VWS V14.01,2013-01-15 15:19:00,
2013-01-15 07:24:00,30.5,26.0,30.49,NW,319,0.0,0.0,83,0.00,,,0.00,VWS V14.01,2013-01-15 15:24:00,
2013-01-15 07:29:00,30.5,26.0,30.49,NW,319,0.0,0.0,83,0.00,,,0.00,VWS V14.01,2013-01-15 15:29:00,
2013-01-15 07:34:00,30.5,26.0,30.50,NW,319,0.0,0.0,83,0.00,,,0.00,VWS V14.01,2013-01-15 15:34:00,
2013-01-15 07:39:00,30.5,26.0,30.50,NW,319,0.0,0.0,83,0.00,,,0.00,VWS V14.01,2013-01-15 15:39:00,
2013-01-15 07:44:00,30.5,26.0,30.50,NW,319,0.0,0.0,83,0.00,,,0.00,VWS V14.01,2013-01-15 15:44:00,
2013-01-15 07:49:00,30.5,26.0,30.50,NW,319,0.0,0.0,83,0.00,,,0.00,VWS V14.01,2013-01-15 15:49:00,
2013-01-15 07:54:00,30.5,26.0,30.50,NW,319,0.0,0.0,83,0.00,,,0.00,VWS V14.01,2013-01-15 15:54:00,
2013-01-15 07:59:00,30.5,26.0,30.51,NW,319,0.0,0.0,83,0.00,,,0.00,VWS V14.01,2013-01-15 15:59:00,
2013-01-15 08:04:00,29.8,26.1,30.51,NW,319,0.0,0.0,86,0.00,,,0.00,VWS V14.01,2013-01-15 16:04:00,
2013-01-15 08:09:00,29.9,26.5,30.51,NW,319,0.0,0.0,87,0.00,,,0.00,VWS V14.01,2013-01-15 16:09:00,
2013-01-15 08:14:00,30.1,26.7,30.51,NW,319,0.0,0.0,87,0.00,,,0.00,VWS V14.01,2013-01-15 16:14:00,
2013-01-15 08:19:00,30.2,26.8,30.51,NW,319,0.0,0.0,87,0.00,,,0.00,VWS V14.01,2013-01-15 16:19:00,
2013-01-15 08:24:00,30.5,27.1,30.51,NW,319,0.0,0.0,87,0.00,,,0.00,VWS V14.01,2013-01-15 16:24:00,
2013-01-15 08:29:00,30.6,27.2,30.52,NW,319,0.0,0.0,87,0.00,,,0.00,VWS V14.01,2013-01-15 16:29:00,
2013-01-15 08:34:00,30.7,27.6,30.51,NW,319,0.0,0.0,88,0.00,,,0.00,VWS V14.01,2013-01-15 16:34:00,
2013-01-15 08:39:00,30.9,27.8,30.52,NW,319,0.0,0.0,88,0.00,,,0.00,VWS V14.01,2013-01-15 16:39:00,
2013-01-15 08:44:00,31.2,28.1,30.52,NW,319,0.0,0.0,88,0.00,,,0.00,VWS V14.01,2013-01-15 16:44:00,
2013-01-15 08:49:00,31.6,28.5,30.52,NW,319,0.0,0.0,88,0.00,,,0.00,VWS V14.01,2013-01-15 16:49:00,
2013-01-15 08:54:00,32.1,29.0,30.52,NW,319,0.0,0.0,88,0.00,,,0.00,VWS V14.01,2013-01-15 16:54:00,
2013-01-15 08:59:00,32.6,29.5,30.52,NW,319,0.0,0.0,88,0.00,,,0.00,VWS V14.01,2013-01-15 16:59:00,
2013-01-15 09:04:00,33.2,30.0,30.52,NW,319,0.0,0.0,88,0.00,,,0.00,VWS V14.01,2013-01-15 17:04:00,
2013-01-15 09:09:00,33.8,30.6,30.52,NW,319,0.0,0.0,88,0.00,,,0.00,VWS V14.01,2013-01-15 17:09:00,
2013-01-15 09:14:00,34.4,30.9,30.52,NW,319,0.0,0.0,87,0.00,,,0.00,VWS V14.01,2013-01-15 17:14:00,
2013-01-15 09:19:00,34.9,31.1,30.53,NW,319,0.0,0.0,86,0.00,,,0.00,VWS V14.01,2013-01-15 17:19:00,
2013-01-15 09:24:00,35.5,31.5,30.53,NW,319,0.0,0.0,85,0.00,,,0.00,VWS V14.01,2013-01-15 17:24:00,
2013-01-15 09:29:00,35.9,31.5,30.53,NW,319,0.0,0.0,84,0.00,,,0.00,VWS V14.01,2013-01-15 17:29:00,
2013-01-15 09:34:00,36.4,31.7,30.53,NW,319,0.0,0.0,83,0.00,,,0.00,VWS V14.01,2013-01-15 17:34:00,
2013-01-15 09:39:00,36.7,31.7,30.53,NW,319,0.0,0.0,82,0.00,,,0.00,VWS V14.01,2013-01-15 17:39:00,
2013-01-15 09:44:00,37.0,31.7,30.53,NW,319,0.0,0.0,81,0.00,,,0.00,VWS V14.01,2013-01-15 17:44:00,
2013-01-15 09:49:00,37.2,31.6,30.53,NW,319,0.0,0.0,80,0.00,,,0.00,VWS V14.01,2013-01-15 17:49:00,
2013-01-15 09:54:00,37.5,31.9,30.52,NW,319,0.0,0.0,80,0.00,,,0.00,VWS V14.01,2013-01-15 17:54:00,
2013-01-15 09:59:00,38.0,32.4,30.53,NW,319,0.0,0.0,80,0.00,,,0.00,VWS V14.01,2013-01-15 17:59:00,
2013-01-15 10:04:00,38.4,32.5,30.53,NW,319,0.0,0.0,79,0.00,,,0.00,VWS V14.01,2013-01-15 18:04:00,
2013-01-15 10:09:00,38.7,32.1,30.53,NW,319,0.0,0.0,77,0.00,,,0.00,VWS V14.01,2013-01-15 18:09:00,
2013-01-15 10:14:00,39.2,32.6,30.53,NW,319,0.0,0.0,77,0.00,,,0.00,VWS V14.01,2013-01-15 18:14:00,
2013-01-15 10:19:00,39.7,32.8,30.53,NW,319,0.0,0.0,76,0.00,,,0.00,VWS V14.01,2013-01-15 18:19:00,
2013-01-15 10:24:00,40.2,32.9,30.53,NW,319,0.0,0.0,75,0.00,,,0.00,VWS V14.01,2013-01-15 18:24:00,
2013-01-15 10:29:00,40.6,33.3,30.52,NW,319,0.0,0.0,75,0.00,,,0.00,VWS V14.01,2013-01-15 18:29:00,
2013-01-15 10:34:00,41.3,34.0,30.52,NW,319,0.0,0.0,75,0.00,,,0.00,VWS V14.01,2013-01-15 18:34:00,
2013-01-15 10:39:00,41.5,33.8,30.52,NW,319,0.0,0.0,74,0.00,,,0.00,VWS V14.01,2013-01-15 18:39:00,
2013-01-15 10:44:00,41.8,33.8,30.52,NW,319,3.0,5.0,73,0.00,,,0.00,VWS V14.01,2013-01-15 18:44:00,
2013-01-15 10:49:00,41.9,33.5,30.52,NW,319,0.0,5.0,72,0.00,,,0.00,VWS V14.01,2013-01-15 18:49:00,
2013-01-15 10:54:00,42.2,33.8,30.52,NW,319,0.0,5.0,72,0.00,,,0.00,VWS V14.01,2013-01-15 18:54:00,
2013-01-15 10:59:00,42.5,33.8,30.52,NW,319,0.0,5.0,71,0.00,,,0.00,VWS V14.01,2013-01-15 18:59:00,
2013-01-15 11:04:00,42.4,33.3,30.52,NW,319,0.0,2.0,70,0.00,,,0.00,VWS V14.01,2013-01-15 19:04:00,
2013-01-15 11:09:00,42.7,33.6,30.51,NW,319,0.0,2.0,70,0.00,,,0.00,VWS V14.01,2013-01-15 19:09:00,
2013-01-15 11:14:00,43.0,33.9,30.51,NW,319,0.0,5.0,70,0.00,,,0.00,VWS V14.01,2013-01-15 19:14:00,
2013-01-15 11:19:00,43.0,33.5,30.51,NW,319,0.0,5.0,69,0.00,,,0.00,VWS V14.01,2013-01-15 19:19:00,
2013-01-15 11:24:00,43.1,33.6,30.51,NW,319,0.0,5.0,69,0.00,,,0.00,VWS V14.01,2013-01-15 19:24:00,
2013-01-15 11:29:00,43.3,33.8,30.51,NW,319,0.0,5.0,69,0.00,,,0.00,VWS V14.01,2013-01-15 19:29:00,
2013-01-15 11:34:00,43.4,33.9,30.50,NW,319,0.0,5.0,69,0.00,,,0.00,VWS V14.01,2013-01-15 19:34:00,
2013-01-15 11:39:00,43.6,34.1,30.50,NW,319,0.0,5.0,69,0.00,,,0.00,VWS V14.01,2013-01-15 19:39:00,
2013-01-15 11:44:00,44.0,34.1,30.50,NW,319,0.0,5.0,68,0.00,,,0.00,VWS V14.01,2013-01-15 19:44:00,
2013-01-15 11:49:00,44.2,34.0,30.50,NW,319,0.0,5.0,67,0.00,,,0.00,VWS V14.01,2013-01-15 19:49:00,
2013-01-15 11:54:00,44.6,34.3,30.50,NW,319,0.0,5.0,67,0.00,,,0.00,VWS V14.01,2013-01-15 19:54:00,
2013-01-15 11:58:00,44.5,34.2,30.50,NW,319,0.0,5.0,67,0.00,,,0.00,VWS V14.01,2013-01-15 19:58:00,
2013-01-15 12:03:00,45.0,34.3,30.49,NW,319,0.0,0.0,66,0.00,,,0.00,VWS V14.01,2013-01-15 20:03:00,
2013-01-15 12:08:00,45.6,34.1,30.49,NW,319,0.0,0.0,64,0.00,,,0.00,VWS V14.01,2013-01-15 20:08:00,
2013-01-15 12:13:00,45.7,34.2,30.48,NW,319,0.0,0.0,64,0.00,,,0.00,VWS V14.01,2013-01-15 20:13:00,
2013-01-15 12:18:00,46.2,34.3,30.48,NW,319,0.0,0.0,63,0.00,,,0.00,VWS V14.01,2013-01-15 20:18:00,
2013-01-15 12:23:00,46.5,34.6,30.48,NW,319,0.0,0.0,63,0.00,,,0.00,VWS V14.01,2013-01-15 20:23:00,
2013-01-15 12:28:00,46.7,34.4,30.48,NW,319,0.0,0.0,62,0.00,,,0.00,VWS V14.01,2013-01-15 20:28:00,
2013-01-15 12:33:00,47.7,34.9,30.48,NW,319,0.0,0.0,61,0.00,,,0.00,VWS V14.01,2013-01-15 20:33:00,
2013-01-15 12:38:00,47.8,34.6,30.47,NW,319,1.0,1.0,60,0.00,,,0.00,VWS V14.01,2013-01-15 20:38:00,
2013-01-15 12:43:00,47.4,33.8,30.47,NW,319,0.0,2.0,59,0.00,,,0.00,VWS V14.01,2013-01-15 20:43:00,
2013-01-15 12:48:00,47.4,33.8,30.47,NW,319,0.0,2.0,59,0.00,,,0.00,VWS V14.01,2013-01-15 20:48:00,
2013-01-15 12:53:00,48.2,34.1,30.47,NW,319,0.0,2.0,58,0.00,,,0.00,VWS V14.01,2013-01-15 20:53:00,
2013-01-15 12:58:00,48.3,33.3,30.46,NW,319,0.0,2.0,56,0.00,,,0.00,VWS V14.01,2013-01-15 20:58:00,
2013-01-15 13:03:00,48.4,33.9,30.46,NW,319,0.0,0.0,57,0.00,,,0.00,VWS V14.01,2013-01-15 21:03:00,
2013-01-15 13:08:00,48.9,33.9,30.46,NW,319,0.0,0.0,56,0.00,,,0.00,VWS V14.01,2013-01-15 21:08:00,
2013-01-15 13:13:00,49.1,34.1,30.46,NW,319,0.0,0.0,56,0.00,,,0.00,VWS V14.01,2013-01-15 21:13:00,
2013-01-15 13:18:00,48.9,34.3,30.46,NW,319,0.0,1.0,57,0.00,,,0.00,VWS V14.01,2013-01-15 21:18:00,
2013-01-15 13:23:00,49.0,34.5,30.46,NW,319,0.0,1.0,57,0.00,,,0.00,VWS V14.01,2013-01-15 21:23:00,
2013-01-15 13:28:00,48.9,33.9,30.46,NW,319,0.0,3.0,56,0.00,,,0.00,VWS V14.01,2013-01-15 21:28:00,
2013-01-15 13:33:00,49.2,34.6,30.46,NW,319,0.0,4.0,57,0.00,,,0.00,VWS V14.01,2013-01-15 21:33:00,
2013-01-15 13:38:00,49.8,35.2,30.46,NW,319,0.0,4.0,57,0.00,,,0.00,VWS V14.01,2013-01-15 21:38:00,
2013-01-15 13:43:00,49.9,34.8,30.46,NW,319,0.0,4.0,56,0.00,,,0.00,VWS V14.01,2013-01-15 21:43:00,
2013-01-15 13:48:00,49.6,34.1,30.45,NW,319,0.0,4.0,55,0.00,,,0.00,VWS V14.01,2013-01-15 21:48:00,
2013-01-15 13:53:00,49.5,34.0,30.45,NW,319,0.0,4.0,55,0.00,,,0.00,VWS V14.01,2013-01-15 21:53:00,
2013-01-15 13:58:00,49.7,34.7,30.45,NW,319,0.0,4.0,56,0.00,,,0.00,VWS V14.01,2013-01-15 21:58:00,
2013-01-15 14:03:00,50.1,34.6,30.45,NW,319,0.0,0.0,55,0.00,,,0.00,VWS V14.01,2013-01-15 22:03:00,
2013-01-15 14:08:00,50.2,34.7,30.45,NW,319,0.0,0.0,55,0.00,,,0.00,VWS V14.01,2013-01-15 22:08:00,
2013-01-15 14:13:00,50.5,34.5,30.45,NW,319,0.0,3.0,54,0.00,,,0.00,VWS V14.01,2013-01-15 22:13:00,
2013-01-15 14:18:00,50.3,34.3,30.45,NW,319,0.0,3.0,54,0.00,,,0.00,VWS V14.01,2013-01-15 22:18:00,
2013-01-15 14:23:00,49.7,33.8,30.45,NW,319,0.0,3.0,54,0.00,,,0.00,VWS V14.01,2013-01-15 22:23:00,
2013-01-15 14:28:00,50.1,34.6,30.45,NW,319,0.0,3.0,55,0.00,,,0.00,VWS V14.01,2013-01-15 22:28:00,
2013-01-15 14:33:00,50.6,35.0,30.45,NW,319,2.0,3.0,55,0.00,,,0.00,VWS V14.01,2013-01-15 22:33:00,
2013-01-15 14:38:00,51.4,35.3,30.45,NW,319,0.0,3.0,54,0.00,,,0.00,VWS V14.01,2013-01-15 22:38:00,
2013-01-15 14:43:00,51.6,34.6,30.44,NW,319,0.0,3.0,52,0.00,,,0.00,VWS V14.01,2013-01-15 22:43:00,
2013-01-15 14:48:00,51.4,34.9,30.44,NW,319,0.0,3.0,53,0.00,,,0.00,VWS V14.01,2013-01-15 22:48:00,
2013-01-15 14:53:00,51.2,34.7,30.44,NW,319,0.0,3.0,53,0.00,,,0.00,VWS V14.01,2013-01-15 22:53:00,
2013-01-15 14:58:00,51.3,34.8,30.44,NW,319,4.0,4.0,53,0.00,,,0.00,VWS V14.01,2013-01-15 22:58:00,
2013-01-15 15:03:00,51.0,34.0,30.44,NW,319,0.0,0.0,52,0.00,,,0.00,VWS V14.01,2013-01-15 23:03:00,
2013-01-15 15:08:00,50.8,34.3,30.44,NW,319,0.0,2.0,53,0.00,,,0.00,VWS V14.01,2013-01-15 23:08:00,
2013-01-15 15:13:00,51.2,34.2,30.44,NW,319,0.0,2.0,52,0.00,,,0.00,VWS V14.01,2013-01-15 23:13:00,
2013-01-15 15:18:00,51.1,34.1,30.44,NW,319,0.0,5.0,52,0.00,,,0.00,VWS V14.01,2013-01-15 23:18:00,
2013-01-15 15:23:00,51.3,34.3,30.44,NW,319,0.0,5.0,52,0.00,,,0.00,VWS V14.01,2013-01-15 23:23:00,
2013-01-15 15:28:00,51.5,34.5,30.44,NW,319,0.0,5.0,52,0.00,,,0.00,VWS V14.01,2013-01-15 23:28:00,
2013-01-15 15:33:00,51.3,34.3,30.44,NW,319,3.0,5.0,52,0.00,,,0.00,VWS V14.01,2013-01-15 23:33:00,
2013-01-15 15:38:00,51.5,34.5,30.44,NW,319,4.0,5.0,52,0.00,,,0.00,VWS V14.01,2013-01-15 23:38:00,
2013-01-15 15:43:00,51.6,34.6,30.44,NW,319,0.0,5.0,52,0.00,,,0.00,VWS V14.01,2013-01-15 23:43:00,
2013-01-15 15:48:00,51.4,34.4,30.44,NW,319,0.0,5.0,52,0.00,,,0.00,VWS V14.01,2013-01-15 23:48:00,
2013-01-15 15:53:00,51.1,34.1,30.44,NW,319,2.0,5.0,52,0.00,,,0.00,VWS V14.01,2013-01-15 23:53:00,
2013-01-15 15:58:00,50.7,34.2,30.44,NW,319,2.0,5.0,53,0.00,,,0.00,VWS V14.01,2013-01-15 23:58:00,
2013-01-15 16:03:00,50.5,34.5,30.44,NW,319,0.0,0.0,54,0.00,,,0.00,VWS V14.01,2013-01-16 00:03:00,
2013-01-15 16:08:00,50.3,34.3,30.44,NW,319,0.0,0.0,54,0.00,,,0.00,VWS V14.01,2013-01-16 00:08:00,
2013-01-15 16:13:00,50.2,34.7,30.45,NW,319,0.0,3.0,55,0.00,,,0.00,VWS V14.01,2013-01-16 00:13:00,
2013-01-15 16:18:00,50.2,34.7,30.45,NW,319,0.0,3.0,55,0.00,,,0.00,VWS V14.01,2013-01-16 00:18:00,
2013-01-15 16:23:00,50.2,34.7,30.45,NW,319,0.0,3.0,55,0.00,,,0.00,VWS V14.01,2013-01-16 00:23:00,
2013-01-15 16:28:00,50.0,34.5,30.45,NW,319,0.0,3.0,55,0.00,,,0.00,VWS V14.01,2013-01-16 00:28:00,
2013-01-15 16:33:00,49.9,34.8,30.45,NW,319,0.0,3.0,56,0.00,,,0.00,VWS V14.01,2013-01-16 00:33:00,
2013-01-15 16:38:00,49.7,34.7,30.45,NW,319,0.0,3.0,56,0.00,,,0.00,VWS V14.01,2013-01-16 00:38:00,
2013-01-15 16:43:00,49.4,34.4,30.45,NW,319,0.0,3.0,56,0.00,,,0.00,VWS V14.01,2013-01-16 00:43:00,
2013-01-15 16:48:00,49.2,34.6,30.45,NW,319,0.0,3.0,57,0.00,,,0.00,VWS V14.01,2013-01-16 00:48:00,
2013-01-15 16:53:00,49.1,34.5,30.45,NW,319,0.0,3.0,57,0.00,,,0.00,VWS V14.01,2013-01-16 00:53:00,
2013-01-15 16:58:00,49.0,34.5,30.45,NW,319,0.0,3.0,57,0.00,,,0.00,VWS V14.01,2013-01-16 00:58:00,
2013-01-15 17:03:00,48.7,34.2,30.45,NW,319,0.0,0.0,57,0.00,,,0.00,VWS V14.01,2013-01-16 01:03:00,
2013-01-15 17:08:00,48.5,33.5,30.45,NW,319,0.0,0.0,56,0.00,,,0.00,VWS V14.01,2013-01-16 01:08:00,
2013-01-15 17:13:00,48.2,33.3,30.45,NW,319,0.0,0.0,56,0.00,,,0.00,VWS V14.01,2013-01-16 01:13:00,
2013-01-15 17:18:00,48.0,33.9,30.45,NW,319,0.0,0.0,58,0.00,,,0.00,VWS V14.01,2013-01-16 01:18:00,
2013-01-15 17:23:00,47.7,33.7,30.44,NW,319,0.0,0.0,58,0.00,,,0.00,VWS V14.01,2013-01-16 01:23:00,
2013-01-15 17:28:00,47.5,33.5,30.44,NW,319,0.0,0.0,58,0.00,,,0.00,VWS V14.01,2013-01-16 01:28:00,
2013-01-15 17:33:00,47.3,33.3,30.44,NW,319,0.0,0.0,58,0.00,,,0.00,VWS V14.01,2013-01-16 01:33:00,
2013-01-15 17:38:00,47.0,33.0,30.44,NW,319,0.0,0.0,58,0.00,,,0.00,VWS V14.01,2013-01-16 01:38:00,
2013-01-15 17:43:00,46.8,33.2,30.44,NW,319,0.0,0.0,59,0.00,,,0.00,VWS V14.01,2013-01-16 01:43:00,
2013-01-15 17:48:00,46.7,33.2,30.44,NW,319,0.0,0.0,59,0.00,,,0.00,VWS V14.01,2013-01-16 01:48:00,
2013-01-15 17:53:00,46.5,33.0,30.44,NW,319,0.0,0.0,59,0.00,,,0.00,VWS V14.01,2013-01-16 01:53:00,
2013-01-15 17:57:00,46.3,33.2,30.44,NW,319,0.0,0.0,60,0.00,,,0.00,VWS V14.01,2013-01-16 01:57:00,
2013-01-15 18:02:00,46.1,33.4,30.44,NW,319,0.0,0.0,61,0.00,,,0.00,VWS V14.01,2013-01-16 02:02:00,
2013-01-15 18:07:00,45.9,33.2,30.45,NW,319,0.0,0.0,61,0.00,,,0.00,VWS V14.01,2013-01-16 02:07:00,
2013-01-15 18:12:00,45.6,33.3,30.45,NW,319,0.0,0.0,62,0.00,,,0.00,VWS V14.01,2013-01-16 02:12:00,
2013-01-15 18:17:00,45.2,33.4,30.45,NW,319,0.0,0.0,63,0.00,,,0.00,VWS V14.01,2013-01-16 02:17:00,
2013-01-15 18:22:00,45.0,33.6,30.45,NW,319,0.0,0.0,64,0.00,,,0.00,VWS V14.01,2013-01-16 02:22:00,
2013-01-15 18:27:00,44.6,33.6,30.45,NW,319,0.0,0.0,65,0.00,,,0.00,VWS V14.01,2013-01-16 02:27:00,
2013-01-15 18:32:00,44.3,33.7,30.44,NW,319,0.0,0.0,66,0.00,,,0.00,VWS V14.01,2013-01-16 02:32:00,
2013-01-15 18:37:00,43.9,33.7,30.44,NW,319,0.0,0.0,67,0.00,,,0.00,VWS V14.01,2013-01-16 02:37:00,
2013-01-15 18:42:00,43.6,33.8,30.44,NW,319,0.0,0.0,68,0.00,,,0.00,VWS V14.01,2013-01-16 02:42:00,
2013-01-15 18:47:00,43.3,33.5,30.44,NW,319,0.0,0.0,68,0.00,,,0.00,VWS V14.01,2013-01-16 02:47:00,
2013-01-15 18:52:00,43.1,33.6,30.44,NW,319,0.0,0.0,69,0.00,,,0.00,VWS V14.01,2013-01-16 02:52:00,
2013-01-15 18:57:00,42.7,33.6,30.44,NW,319,0.0,0.0,70,0.00,,,0.00,VWS V14.01,2013-01-16 02:57:00,
2013-01-15 19:02:00,42.5,33.4,30.45,NW,319,0.0,0.0,70,0.00,,,0.00,VWS V14.01,2013-01-16 03:02:00,
2013-01-15 19:07:00,42.2,33.5,30.45,NW,319,0.0,0.0,71,0.00,,,0.00,VWS V14.01,2013-01-16 03:07:00,
2013-01-15 19:12:00,42.1,33.4,30.45,NW,319,0.0,0.0,71,0.00,,,0.00,VWS V14.01,2013-01-16 03:12:00,
2013-01-15 19:17:00,41.9,33.2,30.45,NW,319,0.0,0.0,71,0.00,,,0.00,VWS V14.01,2013-01-16 03:17:00,
2013-01-15 19:22:00,41.7,33.3,30.45,NW,319,0.0,0.0,72,0.00,,,0.00,VWS V14.01,2013-01-16 03:22:00,
2013-01-15 19:27:00,41.5,33.5,30.45,NW,319,0.0,0.0,73,0.00,,,0.00,VWS V14.01,2013-01-16 03:27:00,
2013-01-15 19:32:00,41.3,33.3,30.45,NW,319,0.0,0.0,73,0.00,,,0.00,VWS V14.01,2013-01-16 03:32:00,
2013-01-15 19:37:00,41.1,33.1,30.45,NW,319,0.0,0.0,73,0.00,,,0.00,VWS V14.01,2013-01-16 03:37:00,
2013-01-15 19:42:00,40.9,32.9,30.45,NW,319,0.0,0.0,73,0.00,,,0.00,VWS V14.01,2013-01-16 03:42:00,
2013-01-15 19:47:00,40.7,33.1,30.45,NW,319,0.0,0.0,74,0.00,,,0.00,VWS V14.01,2013-01-16 03:47:00,
2013-01-15 19:52:00,40.6,33.0,30.45,NW,319,0.0,0.0,74,0.00,,,0.00,VWS V14.01,2013-01-16 03:52:00,
2013-01-15 19:57:00,40.5,32.9,30.45,NW,319,0.0,0.0,74,0.00,,,0.00,VWS V14.01,2013-01-16 03:57:00,
2013-01-15 20:02:00,40.4,32.8,30.44,NW,319,0.0,0.0,74,0.00,,,0.00,VWS V14.01,2013-01-16 04:02:00,
2013-01-15 20:07:00,40.2,32.6,30.45,NW,319,0.0,0.0,74,0.00,,,0.00,VWS V14.01,2013-01-16 04:07:00,
2013-01-15 20:12:00,40.0,32.4,30.45,NW,319,0.0,0.0,74,0.00,,,0.00,VWS V14.01,2013-01-16 04:12:00,
2013-01-15 20:17:00,39.8,32.2,30.45,NW,319,0.0,0.0,74,0.00,,,0.00,VWS V14.01,2013-01-16 04:17:00,
2013-01-15 20:22:00,39.7,32.4,30.45,NW,319,0.0,0.0,75,0.00,,,0.00,VWS V14.01,2013-01-16 04:22:00,
2013-01-15 20:27:00,39.5,32.2,30.44,NW,319,0.0,0.0,75,0.00,,,0.00,VWS V14.01,2013-01-16 04:27:00,
2013-01-15 20:32:00,39.3,32.4,30.45,NW,319,0.0,0.0,76,0.00,,,0.00,VWS V14.01,2013-01-16 04:32:00,
2013-01-15 20:37:00,39.2,32.3,30.45,NW,319,0.0,0.0,76,0.00,,,0.00,VWS V14.01,2013-01-16 04:37:00,
2013-01-15 20:42:00,39.1,32.2,30.45,NW,319,0.0,0.0,76,0.00,,,0.00,VWS V14.01,2013-01-16 04:42:00,
2013-01-15 20:47:00,38.9,32.3,30.45,NW,319,0.0,0.0,77,0.00,,,0.00,VWS V14.01,2013-01-16 04:47:00,
2013-01-15 20:52:00,38.8,32.2,30.45,NW,319,0.0,0.0,77,0.00,,,0.00,VWS V14.01,2013-01-16 04:52:00,
2013-01-15 20:57:00,38.7,32.4,30.45,NW,319,0.0,0.0,78,0.00,,,0.00,VWS V14.01,2013-01-16 04:57:00,
2013-01-15 21:00:00,38.6,32.3,30.45,NW,319,0.0,0.0,78,0.00,,,0.00,VWS V14.01,2013-01-16 05:00:00,
2013-01-15 21:05:00,38.6,32.7,30.45,NW,319,0.0,0.0,79,0.00,,,0.00,VWS V14.01,2013-01-16 05:05:00,
2013-01-15 21:10:00,38.5,32.9,30.45,NW,319,0.0,0.0,80,0.00,,,0.00,VWS V14.01,2013-01-16 05:10:00,
2013-01-15 21:15:00,38.5,32.9,30.44,NW,319,0.0,0.0,80,0.00,,,0.00,VWS V14.01,2013-01-16 05:15:00,
2013-01-15 21:20:00,38.4,32.5,30.44,NW,319,0.0,0.0,79,0.00,,,0.00,VWS V14.01,2013-01-16 05:20:00,
2013-01-15 21:25:00,38.2,32.3,30.44,NW,319,0.0,0.0,79,0.00,,,0.00,VWS V14.01,2013-01-16 05:25:00,
2013-01-15 21:30:00,38.1,32.2,30.44,NW,319,0.0,0.0,79,0.00,,,0.00,VWS V14.01,2013-01-16 05:30:00,
2013-01-15 21:35:00,38.0,32.1,30.44,NW,319,0.0,0.0,79,0.00,,,0.00,VWS V14.01,2013-01-16 05:35:00,
2013-01-15 21:40:00,37.8,32.2,30.44,NW,319,0.0,0.0,80,0.00,,,0.00,VWS V14.01,2013-01-16 05:40:00,
2013-01-15 21:45:00,37.7,32.1,30.44,NW,319,0.0,0.0,80,0.00,,,0.00,VWS V14.01,2013-01-16 05:45:00,
2013-01-15 21:50:00,37.6,32.0,30.44,NW,319,0.0,0.0,80,0.00,,,0.00,VWS V14.01,2013-01-16 05:50:00,
2013-01-15 21:55:00,37.5,31.9,30.44,NW,319,0.0,0.0,80,0.00,,,0.00,VWS V14.01,2013-01-16 05:55:00,
2013-01-15 22:00:00,37.3,31.7,30.44,NW,319,0.0,0.0,80,0.00,,,0.00,VWS V14.01,2013-01-16 06:00:00,
2013-01-15 22:05:00,37.2,31.9,30.45,NW,319,0.0,0.0,81,0.00,,,0.00,VWS V14.01,2013-01-16 06:05:00,
2013-01-15 22:10:00,37.1,31.8,30.45,NW,319,0.0,0.0,81,0.00,,,0.00,VWS V14.01,2013-01-16 06:10:00,
2013-01-15 22:15:00,36.9,31.6,30.45,NW,319,0.0,0.0,81,0.00,,,0.00,VWS V14.01,2013-01-16 06:15:00,
2013-01-15 22:20:00,36.8,31.5,30.45,NW,319,0.0,0.0,81,0.00,,,0.00,VWS V14.01,2013-01-16 06:20:00,
2013-01-15 22:25:00,36.6,31.3,30.45,NW,319,0.0,0.0,81,0.00,,,0.00,VWS V14.01,2013-01-16 06:25:00,
2013-01-15 22:30:00,36.4,31.1,30.44,NW,319,0.0,0.0,81,0.00,,,0.00,VWS V14.01,2013-01-16 06:30:00,
2013-01-15 22:35:00,36.2,30.9,30.45,NW,319,0.0,0.0,81,0.00,,,0.00,VWS V14.01,2013-01-16 06:35:00,
2013-01-15 22:40:00,36.0,31.0,30.45,NW,319,0.0,0.0,82,0.00,,,0.00,VWS V14.01,2013-01-16 06:40:00,
2013-01-15 22:45:00,35.9,31.0,30.45,NW,319,0.0,0.0,82,0.00,,,0.00,VWS V14.01,2013-01-16 06:45:00,
2013-01-15 22:50:00,35.9,31.0,30.45,NW,319,0.0,0.0,82,0.00,,,0.00,VWS V14.01,2013-01-16 06:50:00,
2013-01-15 22:55:00,35.8,31.1,30.45,NW,319,0.0,0.0,83,0.00,,,0.00,VWS V14.01,2013-01-16 06:55:00,
2013-01-15 23:00:00,35.7,31.0,30.45,NW,319,0.0,0.0,83,0.00,,,0.00,VWS V14.01,2013-01-16 07:00:00,
2013-01-15 23:05:00,35.6,31.0,30.45,NW,319,0.0,0.0,83,0.00,,,0.00,VWS V14.01,2013-01-16 07:05:00,
2013-01-15 23:10:00,35.6,31.2,30.45,NW,319,0.0,0.0,84,0.00,,,0.00,VWS V14.01,2013-01-16 07:10:00,
2013-01-15 23:15:00,35.6,31.2,30.45,NW,319,0.0,0.0,84,0.00,,,0.00,VWS V14.01,2013-01-16 07:15:00,
2013-01-15 23:20:00,35.5,31.1,30.45,NW,319,0.0,0.0,84,0.00,,,0.00,VWS V14.01,2013-01-16 07:20:00,
2013-01-15 23:25:00,35.4,31.4,30.45,NW,319,0.0,0.0,85,0.00,,,0.00,VWS V14.01,2013-01-16 07:25:00,
2013-01-15 23:30:00,35.3,31.2,30.45,NW,319,0.0,0.0,85,0.00,,,0.00,VWS V14.01,2013-01-16 07:30:00,
2013-01-15 23:35:00,35.3,31.2,30.45,NW,319,0.0,0.0,85,0.00,,,0.00,VWS V14.01,2013-01-16 07:35:00,
2013-01-15 23:40:00,35.3,31.2,30.46,NW,319,0.0,0.0,85,0.00,,,0.00,VWS V14.01,2013-01-16 07:40:00,
2013-01-15 23:45:00,35.2,31.4,30.45,NW,319,0.0,0.0,86,0.00,,,0.00,VWS V14.01,2013-01-16 07:45:00,
2013-01-15 23:50:00,35.1,31.3,30.46,NW,319,0.0,0.0,86,0.00,,,0.00,VWS V14.01,2013-01-16 07:50:00,
2013-01-15 23:55:00,35.0,31.2,30.46,NW,319,0.0,0.0,86,0.00,,,0.00,VWS V14.01,2013-01-16 07:55:00,